createdAt,value
2023-03-02T00:01:54.007Z,22.83
2023-03-02T00:04:23.396Z,26.60
2023-03-02T00:06:53.035Z,29.33
2023-03-02T00:09:21.413Z,22.57
2023-03-02T00:11:49.818Z,23.67
2023-03-02T00:14:18.204Z,16.17
2023-03-02T00:16:48.000Z,22.50
2023-03-02T00:19:16.403Z,21.47
2023-03-02T00:21:44.698Z,28.70
2023-03-02T00:24:15.436Z,27.63
2023-03-02T00:26:44.177Z,32.93
2023-03-02T00:29:12.501Z,32.40
2023-03-02T00:31:40.821Z,18.77
2023-03-02T00:34:10.618Z,27.47
2023-03-02T00:36:39.014Z,24.63
2023-03-02T00:39:07.450Z,26.20
2023-03-02T00:41:35.845Z,23.40
2023-03-02T00:44:04.191Z,20.10
2023-03-02T00:46:32.851Z,22.53
2023-03-02T00:49:01.361Z,40.77
2023-03-02T00:51:31.074Z,27.93
2023-03-02T00:54:02.844Z,26.13
2023-03-02T00:56:31.646Z,31.63
2023-03-02T00:59:00.176Z,33.50
2023-03-02T01:01:28.497Z,16.27
2023-03-02T01:03:56.833Z,21.23
2023-03-02T01:06:25.256Z,25.33
2023-03-02T01:08:54.951Z,22.80
2023-03-02T01:11:24.225Z,25.17
2023-03-02T01:13:52.633Z,22.13
2023-03-02T01:16:20.920Z,25.70
2023-03-02T01:18:49.411Z,24.03
2023-03-02T01:21:18.088Z,29.87
2023-03-02T01:23:46.492Z,20.37
2023-03-02T01:26:16.178Z,19.23
2023-03-02T01:28:44.537Z,26.47
2023-03-02T01:31:13.085Z,21.07
2023-03-02T01:33:41.500Z,16.13
2023-03-02T01:36:10.168Z,15.27
2023-03-02T01:38:38.602Z,26.70
2023-03-02T01:41:07.056Z,15.23
2023-03-02T01:43:36.897Z,14.13
2023-03-02T01:46:06.578Z,18.53
2023-03-02T01:48:35.987Z,22.07
2023-03-02T01:51:04.698Z,21.27
2023-03-02T01:53:34.282Z,20.90
2023-03-02T01:56:03.720Z,20.73
2023-03-02T01:58:33.962Z,14.90
2023-03-02T02:01:04.079Z,18.87
2023-03-02T02:03:32.700Z,17.80
2023-03-02T02:06:03.913Z,16.03
2023-03-02T02:08:32.375Z,13.63
2023-03-02T02:11:00.867Z,16.37
2023-03-02T02:13:29.222Z,19.20
2023-03-02T02:15:57.571Z,18.57
2023-03-02T02:18:27.352Z,16.63
2023-03-02T02:20:56.220Z,13.77
2023-03-02T02:23:28.798Z,15.53
2023-03-02T02:26:08.479Z,17.00
2023-03-02T02:28:39.342Z,15.13
2023-03-02T02:31:09.838Z,6.67
2023-03-02T02:33:39.080Z,14.13
2023-03-02T02:36:09.264Z,13.73
2023-03-02T02:38:39.594Z,13.37
2023-03-02T02:41:10.317Z,16.63
2023-03-02T02:43:38.850Z,20.50
2023-03-02T02:46:07.266Z,14.10
2023-03-02T02:48:36.332Z,17.70
2023-03-02T02:51:04.758Z,14.93
2023-03-02T02:53:36.916Z,12.97
2023-03-02T02:56:08.574Z,12.30
2023-03-02T02:58:41.569Z,12.73
2023-03-02T03:01:10.051Z,13.30
2023-03-02T03:03:39.681Z,6.90
2023-03-02T03:06:09.201Z,8.27
2023-03-02T03:08:53.008Z,11.87
2023-03-02T03:11:24.454Z,13.10
2023-03-02T03:13:55.977Z,8.23
2023-03-02T03:16:25.620Z,19.63
2023-03-02T03:18:54.952Z,8.67
2023-03-02T03:21:23.392Z,16.53
2023-03-02T03:23:51.749Z,16.13
2023-03-02T03:26:20.606Z,12.70
2023-03-02T03:28:49.019Z,9.30
2023-03-02T03:31:18.780Z,14.17
2023-03-02T03:33:47.195Z,9.93
2023-03-02T03:36:15.549Z,12.73
2023-03-02T03:38:43.892Z,9.10
2023-03-02T03:41:12.905Z,10.60
2023-03-02T03:43:41.500Z,7.63
2023-03-02T03:46:09.907Z,8.70
2023-03-02T03:48:39.718Z,14.53
2023-03-02T03:51:08.200Z,13.17
2023-03-02T03:53:36.684Z,12.23
2023-03-02T03:56:05.812Z,10.60
2023-03-02T03:58:34.241Z,8.40
2023-03-02T04:01:03.377Z,7.87
2023-03-02T04:03:31.962Z,12.63
2023-03-02T04:06:01.690Z,15.50
2023-03-02T04:08:30.039Z,12.23
2023-03-02T04:10:58.374Z,16.30
2023-03-02T04:13:27.029Z,14.23
2023-03-02T04:15:55.400Z,15.23
2023-03-02T04:18:23.742Z,14.87
2023-03-02T04:20:52.139Z,15.47
2023-03-02T04:23:21.954Z,13.43
2023-03-02T04:25:50.277Z,12.63
2023-03-02T04:28:18.650Z,16.80
2023-03-02T04:30:47.150Z,14.03
2023-03-02T04:33:15.534Z,12.07
2023-03-02T04:35:44.015Z,17.00
2023-03-02T04:38:12.532Z,17.10
2023-03-02T04:40:42.283Z,15.27
2023-03-02T04:43:10.639Z,13.90
2023-03-02T04:45:39.042Z,9.80
2023-03-02T04:48:07.857Z,10.07
2023-03-02T04:50:37.154Z,15.40
2023-03-02T04:53:05.579Z,14.33
2023-03-02T04:55:34.008Z,13.27
2023-03-02T04:58:03.718Z,17.43
2023-03-02T05:00:34.246Z,13.07
2023-03-02T05:03:02.690Z,12.50
2023-03-02T05:05:31.839Z,11.20
2023-03-02T05:08:00.781Z,14.53
2023-03-02T05:10:29.494Z,11.80
2023-03-02T05:13:02.395Z,22.97
2023-03-02T05:15:33.939Z,12.70
2023-03-02T05:18:02.700Z,18.13
2023-03-02T05:20:31.694Z,13.90
2023-03-02T05:23:01.300Z,11.73
2023-03-02T05:25:30.369Z,10.40
2023-03-02T05:27:58.854Z,8.23
2023-03-02T05:30:27.378Z,11.40
2023-03-02T05:32:57.188Z,11.43
2023-03-02T05:35:25.796Z,15.00
2023-03-02T05:37:54.202Z,15.63
2023-03-02T05:40:23.980Z,17.87
2023-03-02T05:42:52.346Z,15.53
2023-03-02T05:45:23.128Z,17.47
2023-03-02T05:47:51.673Z,15.33
2023-03-02T05:50:21.601Z,10.77
2023-03-02T05:52:50.210Z,11.03
2023-03-02T05:55:19.300Z,14.27
2023-03-02T05:57:49.433Z,17.60
2023-03-02T06:00:18.740Z,13.17
2023-03-02T06:02:47.810Z,11.60
2023-03-02T06:05:23.546Z,17.17
2023-03-02T06:07:53.893Z,22.70
2023-03-02T06:10:27.042Z,18.63
2023-03-02T06:13:05.705Z,13.00
2023-03-02T06:15:34.246Z,12.43
2023-03-02T06:18:07.788Z,11.70
2023-03-02T06:20:39.172Z,13.57
2023-03-02T06:23:13.691Z,10.73
2023-03-02T06:25:48.229Z,9.10
2023-03-02T06:28:19.897Z,14.00
2023-03-02T06:30:52.386Z,12.30
2023-03-02T06:33:23.638Z,12.80
2023-03-02T06:35:52.156Z,11.40
2023-03-02T06:38:21.994Z,9.93
2023-03-02T06:40:50.324Z,16.60
2023-03-02T06:43:19.246Z,10.10
2023-03-02T06:45:47.962Z,14.03
2023-03-02T06:48:16.385Z,14.70
2023-03-02T06:50:44.977Z,10.90
2023-03-02T06:53:14.463Z,13.37
2023-03-02T06:55:44.268Z,15.87
2023-03-02T06:58:13.303Z,16.77
2023-03-02T07:00:42.122Z,16.90
2023-03-02T07:03:12.187Z,11.17
2023-03-02T07:05:40.622Z,8.77
2023-03-02T07:08:09.338Z,7.57
2023-03-02T07:10:38.816Z,14.70
2023-03-02T07:13:09.373Z,14.47
2023-03-02T07:15:40.608Z,13.00
2023-03-02T07:18:09.070Z,17.20
2023-03-02T07:20:38.352Z,17.13
2023-03-02T07:23:06.868Z,14.63
2023-03-02T07:25:37.791Z,20.93
2023-03-02T07:28:10.634Z,13.93
2023-03-02T07:30:41.875Z,14.57
2023-03-02T07:33:10.290Z,15.37
2023-03-02T07:35:38.737Z,12.83
2023-03-02T07:38:07.263Z,11.43
2023-03-02T07:40:37.801Z,16.13
2023-03-02T07:43:06.353Z,16.80
2023-03-02T07:45:36.229Z,17.73
2023-03-02T07:48:04.660Z,14.17
2023-03-02T07:50:33.348Z,12.93
2023-03-02T07:53:01.860Z,11.80
2023-03-02T07:55:30.571Z,16.37
2023-03-02T07:57:59.085Z,11.53
2023-03-02T08:00:27.624Z,15.57
2023-03-02T08:02:57.460Z,14.40
2023-03-02T08:05:25.878Z,13.20
2023-03-02T08:07:54.294Z,12.67
2023-03-02T08:10:23.128Z,12.57
2023-03-02T08:12:51.659Z,12.87
2023-03-02T08:15:20.164Z,16.20
2023-03-02T08:17:54.086Z,11.70
2023-03-02T08:20:26.582Z,12.87
2023-03-02T08:22:55.090Z,17.37
2023-03-02T08:25:23.532Z,14.40
2023-03-02T08:27:52.074Z,13.90
2023-03-02T08:30:25.197Z,12.87
2023-03-02T08:32:53.638Z,11.97
2023-03-02T08:35:23.073Z,16.20
2023-03-02T08:37:53.001Z,9.07
2023-03-02T08:40:21.609Z,16.87
2023-03-02T08:42:56.887Z,13.97
2023-03-02T08:45:25.467Z,14.43
2023-03-02T08:47:56.752Z,12.93
2023-03-02T08:50:28.089Z,16.93
2023-03-02T08:52:58.143Z,17.43
2023-03-02T08:55:26.572Z,10.63
2023-03-02T08:57:55.749Z,11.33
2023-03-02T09:00:24.896Z,10.53
2023-03-02T09:02:53.378Z,12.63
2023-03-02T09:05:21.807Z,15.23
2023-03-02T09:07:50.348Z,15.10
2023-03-02T09:10:20.200Z,14.67
2023-03-02T09:12:48.956Z,12.50
2023-03-02T09:15:19.909Z,11.93
2023-03-02T09:17:48.346Z,8.90
2023-03-02T09:20:16.734Z,13.90
2023-03-02T09:22:48.698Z,11.20
2023-03-02T09:25:17.578Z,13.60
2023-03-02T09:27:48.248Z,12.00
2023-03-02T09:30:17.474Z,16.73
2023-03-02T09:32:46.173Z,14.67
2023-03-02T09:35:14.726Z,11.47
2023-03-02T09:37:46.040Z,11.70
2023-03-02T09:40:18.951Z,11.07
2023-03-02T09:42:57.237Z,12.23
2023-03-02T09:45:34.963Z,13.23
2023-03-02T09:48:07.487Z,14.50
2023-03-02T09:50:37.156Z,12.97
2023-03-02T09:53:11.971Z,14.60
2023-03-02T09:55:40.532Z,12.37
2023-03-02T09:58:16.655Z,17.63
2023-03-02T10:00:45.570Z,12.20
2023-03-02T10:03:18.112Z,14.20
2023-03-02T10:05:48.240Z,15.20
2023-03-02T10:08:17.642Z,16.30
2023-03-02T10:10:47.017Z,15.00
2023-03-02T10:13:22.268Z,10.60
2023-03-02T10:15:56.554Z,8.70
2023-03-02T10:18:26.190Z,14.70
2023-03-02T10:20:56.594Z,9.87
2023-03-02T10:23:32.731Z,15.73
2023-03-02T10:26:05.354Z,14.00
2023-03-02T10:28:40.433Z,11.53
2023-03-02T10:31:11.865Z,15.63
2023-03-02T10:33:42.055Z,14.53
2023-03-02T10:36:20.831Z,10.60
2023-03-02T10:38:49.585Z,16.20
2023-03-02T10:41:22.570Z,15.67
2023-03-02T10:43:53.794Z,15.80
2023-03-02T10:46:22.330Z,13.53
2023-03-02T10:48:51.905Z,12.33
2023-03-02T10:51:24.098Z,16.03
2023-03-02T10:53:53.805Z,10.70
2023-03-02T10:56:22.959Z,12.67
2023-03-02T10:58:53.526Z,13.70
2023-03-02T11:01:23.063Z,16.87
2023-03-02T11:03:57.803Z,12.47
2023-03-02T11:06:26.454Z,13.97
2023-03-02T11:09:01.682Z,12.33
2023-03-02T11:11:30.564Z,15.13
2023-03-02T11:14:10.596Z,9.80
2023-03-02T11:16:39.060Z,12.60
2023-03-02T11:19:09.433Z,12.80
2023-03-02T11:21:40.272Z,12.87
2023-03-02T11:24:11.424Z,11.00
2023-03-02T11:26:41.091Z,12.63
2023-03-02T11:29:14.450Z,12.77
2023-03-02T11:31:51.303Z,11.10
2023-03-02T11:34:26.618Z,12.03
2023-03-02T11:37:00.779Z,7.67
2023-03-02T11:39:31.945Z,16.20
2023-03-02T11:42:00.421Z,10.40
2023-03-02T11:44:30.583Z,12.30
2023-03-02T11:47:01.612Z,9.93
2023-03-02T11:49:37.434Z,10.73
2023-03-02T11:52:06.333Z,12.63
2023-03-02T11:54:37.972Z,7.00
2023-03-02T11:57:06.611Z,9.07
2023-03-02T11:59:36.666Z,10.83
2023-03-02T12:02:05.542Z,11.97
2023-03-02T12:04:35.481Z,11.90
2023-03-02T12:07:05.507Z,7.97
2023-03-02T12:09:36.816Z,9.67
2023-03-02T12:12:25.596Z,12.97
2023-03-02T12:14:55.453Z,9.90
2023-03-02T12:17:32.264Z,9.40
2023-03-02T12:20:13.893Z,11.40
2023-03-02T12:22:42.488Z,8.13
2023-03-02T12:25:26.728Z,7.77
2023-03-02T12:27:56.024Z,5.93
2023-03-02T12:30:32.015Z,11.07
2023-03-02T12:33:02.318Z,8.40
2023-03-02T12:35:32.361Z,7.73
2023-03-02T12:38:01.857Z,11.73
2023-03-02T12:40:34.641Z,9.20
2023-03-02T12:43:22.230Z,10.63
2023-03-02T12:45:59.248Z,7.30
2023-03-02T12:48:31.520Z,11.20
2023-03-02T12:51:01.703Z,11.17
2023-03-02T12:53:34.018Z,9.33
2023-03-02T12:56:02.639Z,12.03
2023-03-02T12:58:34.151Z,8.53
2023-03-02T13:01:43.535Z,8.50
2023-03-02T13:04:23.639Z,10.07
2023-03-02T13:06:55.400Z,10.03
2023-03-02T13:09:24.705Z,9.43
2023-03-02T13:11:55.216Z,12.47
2023-03-02T13:14:36.905Z,10.47
2023-03-02T13:17:39.833Z,14.43
2023-03-02T13:23:26.490Z,10.03
2023-03-02T13:25:58.652Z,15.47
2023-03-02T13:28:28.757Z,6.77
2023-03-02T13:31:01.118Z,8.00
2023-03-02T13:33:30.475Z,9.53
2023-03-02T13:36:00.546Z,15.20
2023-03-02T13:38:33.152Z,12.87
2023-03-02T13:41:02.218Z,9.47
2023-03-02T13:43:38.373Z,10.70
2023-03-02T13:46:27.067Z,11.00
2023-03-02T13:49:09.170Z,14.63
2023-03-02T13:51:39.636Z,10.30
2023-03-02T13:54:14.601Z,12.93
2023-03-02T13:56:43.947Z,8.83
2023-03-02T13:59:14.428Z,12.73
2023-03-02T14:01:44.175Z,9.63
2023-03-02T14:04:13.580Z,11.00
2023-03-02T14:06:42.094Z,15.30
2023-03-02T14:09:11.990Z,12.30
2023-03-02T14:11:41.883Z,11.33
2023-03-02T14:14:13.565Z,7.87
2023-03-02T14:16:42.074Z,10.87
2023-03-02T14:19:11.652Z,12.40
2023-03-02T14:21:40.267Z,10.67
2023-03-02T14:24:08.937Z,12.67
2023-03-02T14:26:40.803Z,9.67
2023-03-02T14:29:16.594Z,13.03
2023-03-02T14:31:45.099Z,10.23
2023-03-02T14:34:14.479Z,10.83
2023-03-02T14:36:43.725Z,12.83
2023-03-02T14:39:19.459Z,9.47
2023-03-02T14:41:53.708Z,11.53
2023-03-02T14:44:22.912Z,9.97
2023-03-02T14:46:53.793Z,10.70
2023-03-02T14:49:22.882Z,11.50
2023-03-02T14:51:59.639Z,8.43
2023-03-02T14:54:28.631Z,8.40
2023-03-02T14:56:58.484Z,10.83
2023-03-02T14:59:26.925Z,8.40
2023-03-02T15:01:58.222Z,9.33
2023-03-02T15:04:27.247Z,10.53
2023-03-02T15:06:55.948Z,10.07
2023-03-02T15:09:24.432Z,13.10
2023-03-02T15:11:52.844Z,8.63
2023-03-02T15:14:29.273Z,8.40
2023-03-02T15:16:57.642Z,9.83
2023-03-02T15:19:25.989Z,10.07
2023-03-02T15:22:17.170Z,7.93
2023-03-02T15:24:45.726Z,7.13
2023-03-02T15:27:16.718Z,6.33
2023-03-02T15:29:47.195Z,7.77
2023-03-02T15:32:15.949Z,8.00
2023-03-02T15:34:44.802Z,6.80
2023-03-02T15:37:13.548Z,6.60
2023-03-02T15:39:42.093Z,6.73
2023-03-02T15:42:12.655Z,8.83
2023-03-02T15:44:41.815Z,5.47
2023-03-02T15:47:13.331Z,5.00
2023-03-02T15:49:43.096Z,5.70
2023-03-02T15:52:14.226Z,5.60
2023-03-02T15:54:42.656Z,6.70
2023-03-02T15:57:11.204Z,10.10
2023-03-02T15:59:39.587Z,9.37
2023-03-02T16:02:09.298Z,5.60
2023-03-02T16:04:41.911Z,7.67
2023-03-02T16:07:10.385Z,8.33
2023-03-02T16:09:38.759Z,8.43
2023-03-02T16:12:07.489Z,8.00
2023-03-02T16:14:35.890Z,5.80
2023-03-02T16:17:04.312Z,3.00
2023-03-02T16:19:33.512Z,6.63
2023-03-02T16:22:03.285Z,9.33
2023-03-02T16:24:32.140Z,7.03
2023-03-02T16:27:00.506Z,6.77
2023-03-02T16:29:28.864Z,6.50
2023-03-02T16:31:57.288Z,8.27
2023-03-02T16:34:25.826Z,8.30
2023-03-02T16:36:54.307Z,7.60
2023-03-02T16:39:24.277Z,9.10
2023-03-02T16:41:52.702Z,9.23
2023-03-02T16:44:21.437Z,6.80
2023-03-02T16:46:51.123Z,5.37
2023-03-02T16:49:24.644Z,7.17
2023-03-02T16:51:57.702Z,6.37
2023-03-02T16:54:27.481Z,4.43
2023-03-02T16:56:57.158Z,4.83
2023-03-02T16:59:25.567Z,6.60
2023-03-02T17:01:53.980Z,4.47
2023-03-02T17:04:22.512Z,6.80
2023-03-02T17:07:00.410Z,4.90
2023-03-02T17:09:30.947Z,7.33
2023-03-02T17:11:59.528Z,4.77
2023-03-02T17:14:28.033Z,4.97
2023-03-02T17:16:57.852Z,5.10
2023-03-02T17:19:27.093Z,4.07
2023-03-02T17:21:55.533Z,4.23
2023-03-02T17:24:23.953Z,4.37
2023-03-02T17:26:53.792Z,4.33
2023-03-02T17:29:22.317Z,4.80
2023-03-02T17:31:50.702Z,4.47
2023-03-02T17:34:19.018Z,5.83
2023-03-02T17:36:47.398Z,3.73
2023-03-02T17:39:15.754Z,3.67
2023-03-02T17:41:44.085Z,2.87
2023-03-02T17:44:13.820Z,3.10
2023-03-02T17:46:45.406Z,4.33
2023-03-02T17:49:14.332Z,3.97
2023-03-02T17:51:42.714Z,5.07
2023-03-02T17:54:12.218Z,3.40
2023-03-02T17:56:40.565Z,4.70
2023-03-02T17:59:09.082Z,4.90
2023-03-02T18:01:38.796Z,3.33
2023-03-02T18:04:07.326Z,2.40
2023-03-02T18:06:35.817Z,4.87
2023-03-02T18:09:04.225Z,5.20
2023-03-02T18:11:32.619Z,4.63
2023-03-02T18:14:00.945Z,4.23
2023-03-02T18:16:30.101Z,3.90
2023-03-02T18:19:00.004Z,4.87
2023-03-02T18:21:28.363Z,2.17
2023-03-02T18:23:57.077Z,3.47
2023-03-02T18:26:25.901Z,4.30
2023-03-02T18:28:54.289Z,3.80
2023-03-02T18:31:22.700Z,4.73
2023-03-02T18:33:51.276Z,3.97
2023-03-02T18:36:21.074Z,3.00
2023-03-02T18:38:53.008Z,5.07
2023-03-02T18:41:21.981Z,3.23
2023-03-02T18:43:50.400Z,5.97
2023-03-02T18:46:20.161Z,2.63
2023-03-02T18:48:49.615Z,4.60
2023-03-02T18:51:18.127Z,2.50
2023-03-02T18:53:48.730Z,3.47
2023-03-02T18:56:17.388Z,5.30
2023-03-02T18:58:46.264Z,4.50
2023-03-02T19:01:14.955Z,1.53
2023-03-02T19:03:45.959Z,4.43
2023-03-02T19:06:15.187Z,6.23
2023-03-02T19:08:43.781Z,4.03
2023-03-02T19:11:13.945Z,2.77
2023-03-02T19:13:42.425Z,4.07
2023-03-02T19:16:10.886Z,3.87
2023-03-02T19:18:39.365Z,2.97
2023-03-02T19:21:08.017Z,4.77
2023-03-02T19:23:36.416Z,4.17
2023-03-02T19:26:05.236Z,2.43
2023-03-02T19:28:36.181Z,1.40
2023-03-02T19:31:07.124Z,4.13
2023-03-02T19:33:35.681Z,3.30
2023-03-02T19:36:04.074Z,3.23
2023-03-02T19:38:32.492Z,4.13
2023-03-02T19:41:02.014Z,3.93
2023-03-02T19:43:30.544Z,2.80
2023-03-02T19:46:00.700Z,3.20
2023-03-02T19:48:29.857Z,5.00
2023-03-02T19:50:58.651Z,2.30
2023-03-02T19:53:26.996Z,3.60
2023-03-02T19:55:55.385Z,3.37
2023-03-02T19:58:23.790Z,5.53
2023-03-02T20:00:52.214Z,5.50
2023-03-02T20:03:22.031Z,3.13
2023-03-02T20:05:50.352Z,3.80
2023-03-02T20:08:21.665Z,5.20
2023-03-02T20:10:50.309Z,5.70
2023-03-02T20:13:19.512Z,2.80
2023-03-02T20:15:48.857Z,3.67
2023-03-02T20:18:18.687Z,4.20
2023-03-02T20:20:48.814Z,3.97
2023-03-02T20:23:17.630Z,2.03
2023-03-02T20:25:48.235Z,7.13
2023-03-02T20:28:17.910Z,3.57
2023-03-02T20:30:47.820Z,5.03
2023-03-02T20:33:18.774Z,4.70
2023-03-02T20:35:49.231Z,4.20
2023-03-02T20:38:19.950Z,3.87
2023-03-02T20:40:48.337Z,3.03
2023-03-02T20:43:17.065Z,3.83
2023-03-02T20:45:45.960Z,2.83
2023-03-02T20:48:14.749Z,2.73
2023-03-02T20:50:43.520Z,4.20
2023-03-02T20:53:13.716Z,6.20
2023-03-02T20:55:42.124Z,3.73
2023-03-02T20:58:11.101Z,4.53
2023-03-02T21:00:39.497Z,4.70
2023-03-02T21:03:08.630Z,3.80
2023-03-02T21:05:38.154Z,4.87
2023-03-02T21:08:06.661Z,4.60
2023-03-02T21:10:37.535Z,3.53
2023-03-02T21:13:07.609Z,4.30
2023-03-02T21:15:36.521Z,2.97
2023-03-02T21:18:05.385Z,3.67
2023-03-02T21:20:37.057Z,4.97
2023-03-02T21:23:06.113Z,3.70
2023-03-02T21:25:36.025Z,2.07
2023-03-02T21:28:04.378Z,1.63
2023-03-02T21:30:35.121Z,2.13
2023-03-02T21:33:03.490Z,3.13
2023-03-02T21:35:31.955Z,3.07
2023-03-02T21:38:04.870Z,2.83
2023-03-02T21:40:35.391Z,2.63
2023-03-02T21:43:06.673Z,2.27
2023-03-02T21:45:35.201Z,3.80
2023-03-02T21:48:03.664Z,2.90
2023-03-02T21:50:33.472Z,1.60
2023-03-02T21:53:01.833Z,4.60
2023-03-02T21:55:30.863Z,3.87
2023-03-02T21:57:59.241Z,3.10
2023-03-02T22:00:29.859Z,3.13
2023-03-02T22:02:58.212Z,2.30
2023-03-02T22:05:26.861Z,2.60
2023-03-02T22:07:55.281Z,3.10
2023-03-02T22:10:26.161Z,2.73
2023-03-02T22:12:56.156Z,3.87
2023-03-02T22:15:24.644Z,3.80
2023-03-02T22:17:55.512Z,1.80
2023-03-02T22:20:24.006Z,1.63
2023-03-02T22:22:53.966Z,2.53
2023-03-02T22:25:22.525Z,2.63
2023-03-02T22:27:50.877Z,1.40
2023-03-02T22:30:21.492Z,3.30
2023-03-02T22:32:50.248Z,2.10
2023-03-02T22:35:24.671Z,2.33
2023-03-02T22:37:56.311Z,2.13
2023-03-02T22:40:27.704Z,2.50
2023-03-02T22:43:03.537Z,2.00
2023-03-02T22:45:31.897Z,1.50
2023-03-02T22:48:00.950Z,3.07
2023-03-02T22:50:31.775Z,2.20
2023-03-02T22:53:02.149Z,2.10
2023-03-02T22:55:37.125Z,2.87
2023-03-02T22:58:23.825Z,2.90
2023-03-02T23:00:52.516Z,2.43
2023-03-02T23:03:22.032Z,2.23
2023-03-02T23:05:53.101Z,3.67
2023-03-02T23:08:23.712Z,2.70
2023-03-02T23:10:52.777Z,2.47
2023-03-02T23:13:22.173Z,3.77
2023-03-02T23:15:51.597Z,3.80
2023-03-02T23:18:23.018Z,2.90
2023-03-02T23:20:53.051Z,2.97
2023-03-02T23:23:21.880Z,3.80
2023-03-02T23:25:50.610Z,4.03
2023-03-02T23:28:18.977Z,2.37
2023-03-02T23:30:47.641Z,2.53
2023-03-02T23:33:16.034Z,2.53
2023-03-02T23:35:44.561Z,4.17
2023-03-02T23:38:14.286Z,3.27
2023-03-02T23:40:42.674Z,3.73
2023-03-02T23:43:11.009Z,4.03
2023-03-02T23:45:40.175Z,4.20
2023-03-02T23:48:08.600Z,3.00
2023-03-02T23:50:36.977Z,2.73
2023-03-02T23:53:05.578Z,2.90
2023-03-02T23:55:35.634Z,3.33
2023-03-02T23:58:03.954Z,3.37
